createdAt,value
2018-04-17T00:04:57.327Z,71.00
2018-04-17T00:10:00.654Z,71.20
2018-04-17T00:20:32.533Z,71.40
2018-04-17T00:25:35.092Z,71.40
2018-04-17T00:30:37.665Z,71.60
2018-04-17T00:35:41.000Z,71.70
2018-04-17T00:40:43.792Z,71.50
2018-04-17T00:45:46.376Z,71.80
2018-04-17T00:50:50.419Z,71.70
2018-04-17T00:55:52.993Z,71.70
2018-04-17T01:00:55.583Z,71.90
2018-04-17T01:06:00.042Z,72.00
2018-04-17T01:11:20.504Z,72.50
2018-04-17T01:16:23.654Z,72.40
2018-04-17T01:21:26.995Z,72.70
2018-04-17T01:26:32.781Z,73.00
2018-04-17T01:31:35.931Z,72.90
2018-04-17T01:36:39.060Z,73.00
2018-04-17T01:41:42.526Z,73.20
2018-04-17T01:46:45.099Z,72.70
2018-04-17T01:51:47.659Z,72.20
2018-04-17T01:56:50.504Z,72.40
2018-04-17T02:01:53.837Z,71.30
2018-04-17T02:06:57.012Z,71.30
2018-04-17T02:11:59.579Z,70.60
2018-04-17T02:17:02.454Z,71.50
2018-04-17T02:22:05.505Z,71.20
2018-04-17T02:27:08.624Z,72.00
2018-04-17T02:32:12.323Z,72.00
2018-04-17T02:37:14.907Z,72.40
2018-04-17T02:42:18.116Z,72.80
2018-04-17T02:47:21.169Z,72.40
2018-04-17T02:52:24.426Z,72.80
2018-04-17T02:57:28.216Z,72.90
2018-04-17T03:02:36.513Z,72.90
2018-04-17T03:07:39.532Z,72.00
2018-04-17T03:12:42.098Z,72.50
2018-04-17T03:17:45.345Z,72.90
2018-04-17T03:22:48.656Z,72.80
2018-04-17T03:27:51.213Z,73.40
2018-04-17T03:32:54.551Z,72.50
2018-04-17T03:37:57.114Z,72.50
2018-04-17T03:43:00.657Z,71.30
2018-04-17T03:48:03.224Z,71.30
2018-04-17T03:53:05.849Z,71.60
2018-04-17T03:58:08.579Z,72.40
2018-04-17T04:03:12.086Z,72.60
2018-04-17T04:08:14.845Z,72.00
2018-04-17T04:13:17.407Z,71.90
2018-04-17T04:18:31.640Z,72.40
2018-04-17T04:23:46.166Z,72.90
2018-04-17T04:28:49.631Z,75.90
2018-04-17T04:33:52.969Z,77.80
2018-04-17T04:38:55.830Z,77.80
2018-04-17T04:49:26.414Z,76.80
2018-04-17T04:54:29.232Z,76.60
2018-04-17T04:59:31.837Z,77.40
2018-04-17T05:04:34.428Z,77.50
2018-04-17T05:09:37.003Z,77.20
2018-04-17T05:14:40.304Z,77.00
2018-04-17T05:19:42.880Z,77.00
2018-04-17T05:24:45.458Z,76.60
2018-04-17T05:29:49.475Z,76.00
2018-04-17T05:34:53.049Z,75.80
2018-04-17T05:39:55.632Z,75.70
2018-04-17T05:44:58.208Z,77.40
2018-04-17T05:50:00.772Z,77.40
2018-04-17T05:55:03.374Z,75.40
2018-04-17T06:00:05.948Z,73.50
2018-04-17T06:05:08.551Z,73.50
2018-04-17T06:10:11.104Z,75.50
2018-04-17T06:15:13.661Z,76.30
2018-04-17T06:20:16.215Z,76.00
2018-04-17T06:25:18.773Z,76.70
2018-04-17T06:30:22.126Z,79.30
2018-04-17T06:35:24.659Z,79.30
2018-04-17T06:40:27.532Z,79.60
2018-04-17T06:45:30.105Z,79.70
2018-04-17T06:50:32.671Z,80.00
2018-04-17T06:55:35.873Z,80.30
2018-04-17T07:00:38.446Z,81.00
2018-04-17T07:05:41.009Z,79.90
2018-04-17T07:10:43.580Z,79.60
2018-04-17T07:15:46.777Z,78.60
2018-04-17T07:20:49.332Z,78.00
2018-04-17T07:25:51.900Z,76.70
2018-04-17T07:30:55.672Z,77.50
2018-04-17T07:36:01.935Z,77.40
2018-04-17T07:41:04.496Z,77.10
2018-04-17T07:46:07.053Z,76.30
2018-04-17T07:51:10.184Z,74.80
2018-04-17T07:56:13.309Z,73.80
2018-04-17T08:01:15.868Z,72.10
2018-04-17T08:06:18.438Z,70.60
2018-04-17T08:11:20.990Z,69.60
2018-04-17T08:16:26.112Z,69.50
2018-04-17T08:21:28.671Z,67.90
2018-04-17T08:26:32.001Z,66.80
2018-04-17T08:31:34.576Z,67.50
2018-04-17T08:36:38.678Z,65.20
2018-04-17T08:41:41.227Z,65.10
2018-04-17T08:46:44.551Z,63.50
2018-04-17T08:51:47.121Z,63.50
2018-04-17T08:56:57.157Z,62.80
2018-04-17T09:01:59.699Z,62.40
2018-04-17T09:07:03.008Z,60.80
2018-04-17T09:12:06.028Z,60.70
2018-04-17T09:17:09.358Z,61.00
2018-04-17T09:22:12.245Z,60.80
2018-04-17T09:27:16.808Z,59.20
2018-04-17T09:32:19.351Z,59.20
2018-04-17T09:37:25.210Z,58.00
2018-04-17T09:42:29.199Z,58.50
2018-04-17T09:47:32.533Z,57.20
2018-04-17T09:52:35.554Z,57.20
2018-04-17T09:57:38.176Z,55.70
2018-04-17T10:02:40.815Z,55.60
2018-04-17T10:07:46.017Z,54.30
2018-04-17T10:12:48.567Z,54.30
2018-04-17T10:17:51.906Z,52.30
2018-04-17T10:22:54.480Z,52.30
2018-04-17T10:27:57.901Z,50.50
2018-04-17T10:33:02.076Z,49.90
2018-04-17T10:38:04.628Z,49.90
2018-04-17T10:43:09.617Z,51.20
2018-04-17T10:48:12.853Z,51.20
2018-04-17T10:53:17.252Z,49.60
2018-04-17T10:58:20.120Z,48.90
2018-04-17T11:03:22.715Z,49.40
2018-04-17T11:08:26.056Z,48.60
2018-04-17T11:13:29.477Z,47.80
2018-04-17T11:18:33.053Z,47.00
2018-04-17T11:23:35.596Z,46.90
2018-04-17T11:28:39.159Z,43.30
2018-04-17T11:33:42.404Z,43.20
2018-04-17T11:38:44.963Z,41.50
2018-04-17T11:43:48.354Z,41.40
2018-04-17T11:48:51.670Z,40.70
2018-04-17T11:53:55.080Z,40.60
2018-04-17T11:58:59.088Z,39.10
2018-04-17T12:04:03.606Z,38.40
2018-04-17T12:09:06.161Z,37.40
2018-04-17T12:14:10.300Z,36.90
2018-04-17T12:19:13.729Z,36.80
2018-04-17T12:24:17.008Z,35.60
2018-04-17T12:29:19.561Z,32.30
2018-04-17T12:34:22.539Z,33.00
2018-04-17T12:39:25.220Z,33.00
2018-04-17T12:44:28.573Z,30.00
2018-04-17T12:49:31.141Z,29.90
2018-04-17T12:54:35.099Z,28.90
2018-04-17T12:59:40.152Z,28.80
2018-04-17T13:04:42.712Z,27.90
2018-04-17T13:09:46.322Z,26.40
2018-04-17T13:14:48.893Z,26.40
2018-04-17T13:19:52.041Z,26.70
2018-04-17T13:24:55.569Z,26.40
2018-04-17T13:30:02.397Z,24.70
2018-04-17T13:35:05.105Z,24.70
2018-04-17T13:40:08.444Z,24.60
2018-04-17T13:45:11.169Z,24.60
2018-04-17T13:50:13.731Z,24.10
2018-04-17T13:55:19.562Z,23.00
2018-04-17T14:00:22.338Z,25.00
2018-04-17T14:05:25.068Z,25.10
2018-04-17T14:10:28.404Z,24.50
2018-04-17T14:15:31.209Z,24.50
2018-04-17T14:20:33.774Z,23.80
2018-04-17T14:25:37.119Z,22.40
2018-04-17T14:30:39.704Z,22.40
2018-04-17T14:35:43.011Z,22.30
2018-04-17T14:40:47.812Z,23.30
2018-04-17T14:45:51.142Z,23.20
2018-04-17T14:50:54.527Z,24.00
2018-04-17T14:55:57.109Z,23.50
2018-04-17T15:00:59.690Z,23.70
2018-04-17T15:06:03.028Z,23.70
2018-04-17T15:11:06.193Z,23.60
2018-04-17T15:16:09.282Z,23.30
2018-04-17T15:21:12.308Z,22.50
2018-04-17T15:26:14.930Z,22.70
2018-04-17T15:31:18.839Z,22.20
2018-04-17T15:36:21.868Z,22.20
2018-04-17T15:41:26.474Z,22.40
2018-04-17T15:46:36.087Z,22.40
2018-04-17T15:51:39.119Z,22.10
2018-04-17T15:56:43.081Z,22.50
2018-04-17T16:01:45.656Z,22.90
2018-04-17T16:06:48.204Z,22.60
2018-04-17T16:11:51.551Z,22.60
2018-04-17T16:16:54.128Z,22.60
2018-04-17T16:21:58.284Z,22.40
2018-04-17T16:27:00.880Z,22.30
2018-04-17T16:32:04.201Z,23.50
2018-04-17T16:37:06.769Z,23.00
2018-04-17T16:42:10.095Z,23.30
2018-04-17T16:47:13.503Z,23.60
2018-04-17T16:52:16.842Z,24.00
2018-04-17T16:57:20.022Z,23.90
2018-04-17T17:02:24.050Z,24.50
2018-04-17T17:07:28.424Z,24.50
2018-04-17T17:12:31.026Z,24.50
2018-04-17T17:17:33.590Z,24.40
2018-04-17T17:22:36.915Z,24.80
2018-04-17T17:27:40.259Z,24.80
2018-04-17T17:32:42.836Z,24.70
2018-04-17T17:37:46.170Z,25.60
2018-04-17T17:42:49.318Z,25.60
2018-04-17T17:47:51.870Z,25.90
2018-04-17T17:52:54.428Z,26.80
2018-04-17T17:57:56.989Z,27.10
2018-04-17T18:03:02.221Z,27.20
2018-04-17T18:08:05.776Z,27.90
2018-04-17T18:13:11.067Z,28.50
2018-04-17T18:18:13.609Z,29.00
2018-04-17T18:23:22.434Z,29.20
2018-04-17T18:28:25.772Z,29.70
2018-04-17T18:33:28.348Z,29.70
2018-04-17T18:38:32.582Z,31.30
2018-04-17T18:43:36.348Z,32.10
2018-04-17T18:48:38.924Z,32.00
2018-04-17T18:53:41.913Z,33.20
2018-04-17T18:58:45.244Z,34.40
2018-04-17T19:03:47.818Z,34.30
2018-04-17T19:08:54.628Z,35.30
2018-04-17T19:13:58.104Z,35.90
2018-04-17T19:19:00.671Z,35.90
2018-04-17T19:24:03.246Z,36.10
2018-04-17T19:29:06.650Z,37.10
2018-04-17T19:34:12.480Z,37.40
2018-04-17T19:39:15.780Z,37.30
2018-04-17T19:44:18.851Z,37.80
2018-04-17T19:49:22.181Z,38.20
2018-04-17T19:54:24.736Z,38.20
2018-04-17T19:59:27.345Z,38.50
2018-04-17T20:04:30.543Z,38.60
2018-04-17T20:09:33.097Z,38.70
2018-04-17T20:14:35.683Z,39.30
2018-04-17T20:19:39.012Z,39.70
2018-04-17T20:24:41.565Z,39.70
2018-04-17T20:29:45.911Z,39.40
2018-04-17T20:34:48.475Z,39.40
2018-04-17T20:39:51.034Z,39.20
2018-04-17T20:44:53.725Z,38.90
2018-04-17T20:49:57.063Z,38.90
2018-04-17T20:55:02.306Z,38.80
2018-04-17T21:00:06.331Z,39.00
2018-04-17T21:05:09.639Z,39.50
2018-04-17T21:10:15.583Z,40.50
2018-04-17T21:15:18.299Z,40.40
2018-04-17T21:20:23.584Z,41.20
2018-04-17T21:25:26.900Z,42.60
2018-04-17T21:30:30.274Z,43.30
2018-04-17T21:35:32.808Z,43.20
2018-04-17T21:40:36.136Z,43.50
2018-04-17T21:45:39.475Z,43.60
2018-04-17T21:50:42.043Z,43.50
2018-04-17T21:55:45.404Z,44.50
2018-04-17T22:00:48.668Z,44.40
2018-04-17T22:05:51.997Z,45.90
2018-04-17T22:10:55.335Z,45.60
2018-04-17T22:15:58.720Z,46.00
2018-04-17T22:21:01.669Z,46.70
2018-04-17T22:26:07.598Z,47.10
2018-04-17T22:31:10.185Z,47.70
2018-04-17T22:36:12.748Z,48.00
2018-04-17T22:41:15.305Z,48.10
2018-04-17T22:46:17.931Z,48.30
2018-04-17T22:51:20.501Z,48.50
2018-04-17T22:56:23.698Z,48.70
2018-04-17T23:01:27.039Z,48.40
2018-04-17T23:06:29.588Z,48.90
2018-04-17T23:11:32.162Z,48.80
2018-04-17T23:16:35.155Z,49.40
2018-04-17T23:21:37.709Z,50.00
2018-04-17T23:26:41.042Z,50.90
2018-04-17T23:31:44.364Z,51.10
2018-04-17T23:36:47.420Z,51.00
2018-04-17T23:41:49.973Z,50.90
2018-04-17T23:46:53.649Z,51.30
2018-04-17T23:51:56.471Z,51.80
2018-04-17T23:56:59.045Z,52.30
